createdAt,value
2023-01-17T07:11:48.519Z,24.50
2023-01-17T07:14:54.144Z,24.30
2023-01-17T07:18:05.665Z,23.00
2023-01-17T07:21:18.006Z,23.90
2023-01-17T07:24:23.307Z,25.10
2023-01-17T07:27:29.774Z,24.00
2023-01-17T07:30:32.604Z,25.30
2023-01-17T07:38:38.457Z,23.80
2023-01-17T07:41:42.375Z,22.80
2023-01-17T07:44:44.993Z,24.20
2023-01-17T07:47:56.522Z,23.60
2023-01-17T07:51:00.157Z,24.70
2023-01-17T07:54:04.384Z,23.90
2023-01-17T07:57:11.753Z,22.20
2023-01-17T08:06:47.267Z,23.40
2023-01-17T08:15:17.006Z,21.30
2023-01-17T08:33:36.698Z,21.60
2023-01-17T08:47:51.843Z,21.30
2023-01-17T22:21:48.562Z,28.90
2023-01-17T22:24:53.499Z,26.90
2023-01-17T22:27:58.687Z,31.10
2023-01-17T22:31:18.702Z,27.90
2023-01-17T22:34:23.367Z,30.60
2023-01-17T22:37:28.160Z,27.10
2023-01-17T22:40:33.987Z,27.40
2023-01-17T22:43:41.532Z,28.90
2023-01-17T22:46:44.455Z,27.80
2023-01-17T22:49:46.777Z,28.10
2023-01-17T22:52:51.711Z,29.10
2023-01-17T22:56:07.451Z,28.40
2023-01-17T22:59:13.004Z,29.30
2023-01-17T23:02:16.644Z,26.90
2023-01-17T23:05:19.656Z,28.20
2023-01-17T23:08:25.932Z,27.70
2023-01-17T23:11:42.925Z,26.50
2023-01-17T23:15:03.968Z,28.10
2023-01-17T23:18:27.862Z,28.40
2023-01-17T23:21:50.896Z,28.20
2023-01-17T23:25:07.941Z,29.30
2023-01-17T23:28:20.287Z,29.30
2023-01-17T23:31:23.934Z,28.70
2023-01-17T23:34:26.699Z,27.60
2023-01-17T23:37:49.279Z,26.60
2023-01-17T23:41:12.313Z,27.10
2023-01-17T23:44:16.487Z,26.70
2023-01-17T23:47:18.660Z,26.20
2023-01-17T23:50:22.357Z,27.50
2023-01-17T23:53:27.754Z,27.10
2023-01-17T23:56:29.991Z,26.00
2023-01-17T23:59:32.403Z,25.00
